createdAt,value
2022-10-10T00:00:21.531Z,19.25
2022-10-10T00:02:49.075Z,12.07
2022-10-10T00:05:16.939Z,17.45
2022-10-10T00:07:45.532Z,12.43
2022-10-10T00:10:13.033Z,12.15
2022-10-10T00:12:40.472Z,11.23
2022-10-10T00:15:08.343Z,17.55
2022-10-10T00:17:36.549Z,13.05
2022-10-10T00:20:04.259Z,13.60
2022-10-10T00:22:31.685Z,11.43
2022-10-10T00:24:59.286Z,11.95
2022-10-10T00:27:26.736Z,14.20
2022-10-10T00:29:54.357Z,16.42
2022-10-10T00:32:21.888Z,12.85
2022-10-10T00:34:49.274Z,13.40
2022-10-10T00:37:16.810Z,12.93
2022-10-10T00:39:44.230Z,12.10
2022-10-10T00:42:15.751Z,12.40
2022-10-10T00:44:44.109Z,11.80
2022-10-10T00:47:11.547Z,11.07
2022-10-10T00:49:42.631Z,13.10
2022-10-10T00:52:10.984Z,11.65
2022-10-10T00:54:39.657Z,13.93
2022-10-10T00:57:12.415Z,13.43
2022-10-10T00:59:41.559Z,11.82
2022-10-10T01:02:09.141Z,11.38
2022-10-10T01:04:41.762Z,11.20
2022-10-10T01:07:20.262Z,14.32
2022-10-10T01:12:26.893Z,13.15
2022-10-10T01:15:29.880Z,12.00
2022-10-10T01:18:04.424Z,16.20
2022-10-10T01:20:40.874Z,11.05
2022-10-10T01:23:14.424Z,12.85
2022-10-10T01:25:53.312Z,11.20
2022-10-10T01:28:26.703Z,13.23
2022-10-10T01:30:55.046Z,11.75
2022-10-10T01:33:54.501Z,12.40
2022-10-10T01:36:27.833Z,11.45
2022-10-10T01:39:14.375Z,14.98
2022-10-10T01:41:48.557Z,11.65
2022-10-10T01:44:20.467Z,11.67
2022-10-10T01:46:48.468Z,12.48
2022-10-10T01:49:15.971Z,11.85
2022-10-10T01:51:43.377Z,10.25
2022-10-10T01:54:13.927Z,13.52
2022-10-10T01:57:00.816Z,10.45
2022-10-10T01:59:46.799Z,10.48
2022-10-10T02:02:37.515Z,12.40
2022-10-10T02:05:09.048Z,8.65
2022-10-10T02:07:40.448Z,11.20
2022-10-10T02:10:09.057Z,13.40
2022-10-10T02:12:37.171Z,10.27
2022-10-10T02:15:13.123Z,11.07
2022-10-10T02:17:41.376Z,9.88
2022-10-10T02:20:12.355Z,11.23
2022-10-10T02:22:41.208Z,10.02
2022-10-10T02:25:09.077Z,9.82
2022-10-10T02:27:39.993Z,10.30
2022-10-10T02:30:07.847Z,13.23
2022-10-10T02:32:40.879Z,9.43
2022-10-10T02:35:09.967Z,15.18
2022-10-10T02:37:40.078Z,11.57
2022-10-10T02:40:08.727Z,10.10
2022-10-10T02:42:37.045Z,10.55
2022-10-10T02:45:05.249Z,12.15
2022-10-10T02:47:32.856Z,9.68
2022-10-10T02:50:00.242Z,10.07
2022-10-10T02:52:27.726Z,10.40
2022-10-10T02:54:55.352Z,9.95
2022-10-10T02:57:22.846Z,10.63
2022-10-10T02:59:50.260Z,9.93
2022-10-10T03:02:17.726Z,9.25
2022-10-10T03:04:45.119Z,10.90
2022-10-10T03:07:12.701Z,14.45
2022-10-10T03:09:40.280Z,11.35
2022-10-10T03:12:07.721Z,11.70
2022-10-10T03:14:35.184Z,12.25
2022-10-10T03:17:02.624Z,11.05
2022-10-10T03:19:30.004Z,12.20
2022-10-10T03:21:57.445Z,10.32
2022-10-10T03:24:25.001Z,9.93
2022-10-10T03:26:52.468Z,10.13
2022-10-10T03:29:19.919Z,9.52
2022-10-10T03:31:47.376Z,11.00
2022-10-10T03:34:14.838Z,10.23
2022-10-10T03:36:42.242Z,10.55
2022-10-10T03:39:09.648Z,12.25
2022-10-10T03:41:37.268Z,11.43
2022-10-10T03:44:04.646Z,11.15
2022-10-10T03:46:32.053Z,16.67
2022-10-10T03:48:59.415Z,13.82
2022-10-10T03:51:26.871Z,14.50
2022-10-10T03:53:55.222Z,11.38
2022-10-10T03:56:22.760Z,11.15
2022-10-10T03:58:50.320Z,17.83
2022-10-10T04:01:17.830Z,13.45
2022-10-10T04:03:49.897Z,14.57
2022-10-10T04:06:19.533Z,13.70
2022-10-10T04:08:46.901Z,10.45
2022-10-10T04:11:14.770Z,14.25
2022-10-10T04:13:42.162Z,15.18
2022-10-10T04:16:09.613Z,11.20
2022-10-10T04:18:37.124Z,13.45
2022-10-10T04:21:05.401Z,13.15
2022-10-10T04:23:33.343Z,10.32
2022-10-10T04:26:00.813Z,12.70
2022-10-10T04:28:28.274Z,11.15
2022-10-10T04:30:56.714Z,13.38
2022-10-10T04:33:24.264Z,17.17
2022-10-10T04:35:51.722Z,19.65
2022-10-10T04:38:21.373Z,13.82
2022-10-10T04:40:50.163Z,13.60
2022-10-10T04:43:18.098Z,12.60
2022-10-10T04:45:45.756Z,13.57
2022-10-10T04:48:13.184Z,10.20
2022-10-10T04:50:40.733Z,15.20
2022-10-10T04:53:08.245Z,22.98
2022-10-10T04:55:35.810Z,26.92
2022-10-10T04:58:03.233Z,20.65
2022-10-10T05:00:30.748Z,23.33
2022-10-10T05:02:58.134Z,12.55
2022-10-10T05:05:25.572Z,11.45
2022-10-10T05:07:55.670Z,12.32
2022-10-10T05:10:23.665Z,13.35
2022-10-10T05:12:51.456Z,14.90
2022-10-10T05:15:19.265Z,20.13
2022-10-10T05:17:46.632Z,36.65
2022-10-10T05:20:14.124Z,46.38
2022-10-10T05:22:41.551Z,42.03
2022-10-10T05:25:09.157Z,53.13
2022-10-10T05:27:36.554Z,33.13
2022-10-10T05:30:04.012Z,20.48
2022-10-10T05:32:31.497Z,13.77
2022-10-10T05:34:58.899Z,8.80
2022-10-10T05:37:26.409Z,8.32
2022-10-10T05:39:54.859Z,9.73
2022-10-10T05:42:22.423Z,8.85
2022-10-10T05:44:49.899Z,7.60
2022-10-10T05:47:17.437Z,11.38
2022-10-10T05:49:44.806Z,13.05
2022-10-10T05:52:12.252Z,10.02
2022-10-10T05:54:39.815Z,11.05
2022-10-10T05:57:07.254Z,6.40
2022-10-10T05:59:34.711Z,10.90
2022-10-10T06:02:02.135Z,9.75
2022-10-10T06:04:29.614Z,9.27
2022-10-10T06:06:57.020Z,8.85
2022-10-10T06:09:24.512Z,6.50
2022-10-10T06:11:51.900Z,8.35
2022-10-10T06:14:19.464Z,6.57
2022-10-10T06:16:46.835Z,9.52
2022-10-10T06:19:15.241Z,9.88
2022-10-10T06:21:42.851Z,7.70
2022-10-10T06:24:10.891Z,6.75
2022-10-10T06:26:39.608Z,5.43
2022-10-10T06:29:07.463Z,5.93
2022-10-10T06:31:39.494Z,6.15
2022-10-10T06:34:07.104Z,7.85
2022-10-10T06:36:34.544Z,7.72
2022-10-10T06:39:02.093Z,7.15
2022-10-10T06:41:29.612Z,6.50
2022-10-10T06:43:57.076Z,5.63
2022-10-10T06:46:24.511Z,5.68
2022-10-10T06:48:51.997Z,8.90
2022-10-10T06:51:19.816Z,7.13
2022-10-10T06:53:47.298Z,5.88
2022-10-10T06:56:27.350Z,6.82
2022-10-10T06:58:55.464Z,5.97
2022-10-10T07:01:24.580Z,5.28
2022-10-10T07:03:52.195Z,8.35
2022-10-10T07:06:19.865Z,6.28
2022-10-10T07:08:47.420Z,7.30
2022-10-10T07:11:14.996Z,7.18
2022-10-10T07:13:42.542Z,6.63
2022-10-10T07:16:11.325Z,3.88
2022-10-10T07:18:38.897Z,5.93
2022-10-10T07:21:06.704Z,9.55
2022-10-10T07:23:36.516Z,7.00
2022-10-10T07:26:05.889Z,4.35
2022-10-10T07:28:33.979Z,6.28
2022-10-10T07:31:02.657Z,9.77
2022-10-10T07:33:34.053Z,12.63
2022-10-10T07:36:01.555Z,9.20
2022-10-10T07:38:29.141Z,5.20
2022-10-10T07:40:56.576Z,7.50
2022-10-10T07:43:24.083Z,8.10
2022-10-10T07:45:51.626Z,16.40
2022-10-10T07:48:19.035Z,5.43
2022-10-10T07:50:46.568Z,4.50
2022-10-10T07:53:14.291Z,6.25
2022-10-10T07:55:42.582Z,8.35
2022-10-10T07:58:11.027Z,6.78
2022-10-10T08:00:41.933Z,4.70
2022-10-10T08:03:12.137Z,6.13
2022-10-10T08:05:41.086Z,8.15
2022-10-10T08:08:08.589Z,8.93
2022-10-10T08:10:40.564Z,4.53
2022-10-10T08:13:08.149Z,9.43
2022-10-10T08:15:35.552Z,9.20
2022-10-10T08:18:03.055Z,5.20
2022-10-10T08:20:30.495Z,6.40
2022-10-10T08:22:58.007Z,4.30
2022-10-10T08:25:26.360Z,3.60
2022-10-10T08:27:53.772Z,7.72
2022-10-10T08:30:21.178Z,5.13
2022-10-10T08:32:48.865Z,7.88
2022-10-10T08:35:16.715Z,4.72
2022-10-10T08:37:44.157Z,7.13
2022-10-10T08:40:15.335Z,9.05
2022-10-10T08:42:50.444Z,6.82
2022-10-10T08:45:25.617Z,7.15
2022-10-10T08:47:59.144Z,7.90
2022-10-10T08:50:30.324Z,7.57
2022-10-10T08:53:15.662Z,6.43
2022-10-10T08:55:44.018Z,7.88
2022-10-10T08:58:20.540Z,7.93
2022-10-10T09:01:08.037Z,6.38
2022-10-10T09:03:47.934Z,5.05
2022-10-10T09:06:18.375Z,3.45
2022-10-10T09:08:48.979Z,7.97
2022-10-10T09:11:35.090Z,3.28
2022-10-10T09:14:17.849Z,8.10
2022-10-10T09:16:51.594Z,6.63
2022-10-10T09:19:27.545Z,7.65
2022-10-10T09:21:57.774Z,6.55
2022-10-10T09:24:27.677Z,6.18
2022-10-10T09:27:01.954Z,6.80
2022-10-10T09:29:35.520Z,4.57
2022-10-10T09:32:12.045Z,4.78
2022-10-10T09:34:49.804Z,5.35
2022-10-10T09:37:42.257Z,3.83
2022-10-10T09:40:22.853Z,5.82
2022-10-10T09:42:50.729Z,8.15
2022-10-10T09:45:25.661Z,5.82
2022-10-10T09:47:55.071Z,6.82
2022-10-10T09:50:22.948Z,9.63
2022-10-10T09:52:50.777Z,4.00
2022-10-10T09:55:31.729Z,5.38
2022-10-10T09:58:04.438Z,3.20
2022-10-10T10:00:36.678Z,9.05
2022-10-10T10:03:16.124Z,7.80
2022-10-10T10:05:46.213Z,5.13
2022-10-10T10:08:24.861Z,4.68
2022-10-10T10:10:52.401Z,5.57
2022-10-10T10:13:25.552Z,3.03
2022-10-10T10:15:57.920Z,3.95
2022-10-10T10:18:28.534Z,6.57
2022-10-10T10:21:10.170Z,4.90
2022-10-10T10:23:58.136Z,4.63
2022-10-10T10:26:45.843Z,9.68
2022-10-10T10:29:28.206Z,8.00
2022-10-10T10:32:15.293Z,4.78
2022-10-10T10:34:54.956Z,5.53
2022-10-10T10:37:33.204Z,8.25
2022-10-10T10:40:12.840Z,6.00
2022-10-10T10:42:43.351Z,4.50
2022-10-10T10:45:18.519Z,2.30
2022-10-10T10:47:46.046Z,3.47
2022-10-10T10:50:25.575Z,2.55
2022-10-10T10:52:56.217Z,4.97
2022-10-10T10:55:33.277Z,4.03
2022-10-10T10:58:43.363Z,3.40
2022-10-10T11:01:22.255Z,5.32
2022-10-10T11:05:16.474Z,3.65
2022-10-10T11:06:49.117Z,4.20
2022-10-10T11:09:49.119Z,4.85
2022-10-10T11:12:22.783Z,6.40
2022-10-10T11:15:08.929Z,3.50
2022-10-10T11:17:37.859Z,5.32
2022-10-10T11:20:23.629Z,4.45
2022-10-10T11:22:54.533Z,4.57
2022-10-10T11:25:24.726Z,2.38
2022-10-10T11:27:56.127Z,4.90
2022-10-10T11:30:28.448Z,5.35
2022-10-10T11:33:10.903Z,3.45
2022-10-10T11:35:45.209Z,4.43
2022-10-10T11:38:12.624Z,3.78
2022-10-10T11:40:52.349Z,4.10
2022-10-10T11:43:23.548Z,4.88
2022-10-10T11:45:56.774Z,7.05
2022-10-10T11:48:47.160Z,3.47
2022-10-10T11:51:25.849Z,6.60
2022-10-10T11:53:57.797Z,6.47
2022-10-10T11:56:36.972Z,6.07
2022-10-10T11:59:21.967Z,10.88
2022-10-10T12:01:50.688Z,5.38
2022-10-10T12:04:18.278Z,6.13
2022-10-10T12:06:45.727Z,5.55
2022-10-10T12:09:19.264Z,6.57
2022-10-10T12:11:53.152Z,9.02
2022-10-10T12:14:22.278Z,9.33
2022-10-10T12:16:49.877Z,5.97
2022-10-10T12:19:19.388Z,3.53
2022-10-10T12:21:52.729Z,12.48
2022-10-10T12:24:20.331Z,9.18
2022-10-10T12:26:53.761Z,5.07
2022-10-10T12:29:36.324Z,6.90
2022-10-10T12:32:17.411Z,5.30
2022-10-10T12:34:58.601Z,6.63
2022-10-10T12:37:30.173Z,8.30
2022-10-10T12:40:19.746Z,6.70
2022-10-10T12:42:47.177Z,6.82
2022-10-10T12:45:30.013Z,5.85
2022-10-10T12:48:18.782Z,4.93
2022-10-10T12:50:55.523Z,3.78
2022-10-10T12:53:24.548Z,6.97
2022-10-10T12:55:54.345Z,4.97
2022-10-10T12:58:28.131Z,4.47
2022-10-10T13:01:07.094Z,7.20
2022-10-10T13:03:45.451Z,5.93
2022-10-10T13:06:32.864Z,10.38
2022-10-10T13:09:01.422Z,3.65
2022-10-10T13:11:28.842Z,4.65
2022-10-10T13:13:57.587Z,5.38
2022-10-10T13:16:31.138Z,6.60
2022-10-10T13:19:01.473Z,7.22
2022-10-10T13:21:34.003Z,8.35
2022-10-10T13:24:05.834Z,7.90
2022-10-10T13:26:34.203Z,9.15
2022-10-10T13:29:07.007Z,9.77
2022-10-10T13:31:34.462Z,6.25
2022-10-10T13:34:07.488Z,12.82
2022-10-10T13:36:35.294Z,6.35
2022-10-10T13:39:02.958Z,5.50
2022-10-10T13:41:30.513Z,9.55
2022-10-10T13:43:57.982Z,12.48
2022-10-10T13:46:30.890Z,9.68
2022-10-10T13:48:58.494Z,6.35
2022-10-10T13:51:42.624Z,5.57
2022-10-10T13:54:29.071Z,6.45
2022-10-10T13:56:56.568Z,10.65
2022-10-10T13:59:24.644Z,4.97
2022-10-10T14:01:55.711Z,5.60
2022-10-10T14:04:28.039Z,5.85
2022-10-10T14:06:58.507Z,4.75
2022-10-10T14:09:25.894Z,10.25
2022-10-10T14:11:54.775Z,7.25
2022-10-10T14:14:24.447Z,6.75
2022-10-10T14:17:01.892Z,14.32
2022-10-10T14:19:32.110Z,7.20
2022-10-10T14:21:59.846Z,10.15
2022-10-10T14:24:27.347Z,7.00
2022-10-10T14:26:54.919Z,10.10
2022-10-10T14:29:22.371Z,4.78
2022-10-10T14:31:49.859Z,5.32
2022-10-10T14:34:17.263Z,6.18
2022-10-10T14:36:48.521Z,4.85
2022-10-10T14:39:16.674Z,6.75
2022-10-10T14:41:44.091Z,9.27
2022-10-10T14:44:11.788Z,5.45
2022-10-10T14:46:40.007Z,6.20
2022-10-10T14:49:12.956Z,5.05
2022-10-10T14:51:40.605Z,6.80
2022-10-10T14:54:13.539Z,4.85
2022-10-10T14:57:07.314Z,6.25
2022-10-10T14:59:49.449Z,5.43
2022-10-10T15:02:18.683Z,8.93
2022-10-10T15:04:48.378Z,6.10
2022-10-10T15:07:16.328Z,7.28
2022-10-10T15:10:18.912Z,8.98
2022-10-10T15:12:32.671Z,6.10
2022-10-10T15:15:00.086Z,6.43
2022-10-10T15:17:29.688Z,6.90
2022-10-10T15:19:57.341Z,7.15
2022-10-10T15:22:24.795Z,7.97
2022-10-10T15:24:52.221Z,6.60
2022-10-10T15:27:19.924Z,7.18
2022-10-10T15:29:47.382Z,7.85
2022-10-10T15:32:14.844Z,6.13
2022-10-10T15:34:42.261Z,4.50
2022-10-10T15:37:10.558Z,5.68
2022-10-10T15:39:38.254Z,9.25
2022-10-10T15:42:12.604Z,7.75
2022-10-10T15:44:45.858Z,9.40
2022-10-10T15:47:14.312Z,5.72
2022-10-10T15:49:42.248Z,9.00
2022-10-10T15:52:10.319Z,7.10
2022-10-10T15:54:37.758Z,12.45
2022-10-10T15:57:05.245Z,14.38
2022-10-10T15:59:33.120Z,16.70
2022-10-10T16:02:03.480Z,9.30
2022-10-10T16:04:30.926Z,8.05
2022-10-10T16:09:48.463Z,17.35
2022-10-10T16:12:18.390Z,14.75
2022-10-10T16:14:45.928Z,8.25
2022-10-10T16:17:13.357Z,10.48
2022-10-10T16:19:40.875Z,7.80
2022-10-10T16:22:08.232Z,10.55
2022-10-10T16:24:35.726Z,10.60
2022-10-10T16:27:03.131Z,9.27
2022-10-10T16:29:30.559Z,5.68
2022-10-10T16:31:57.980Z,6.88
2022-10-10T16:34:25.460Z,9.57
2022-10-10T16:36:53.029Z,9.23
2022-10-10T16:39:20.479Z,8.75
2022-10-10T16:41:49.167Z,8.90
2022-10-10T16:44:17.582Z,9.27
2022-10-10T16:46:45.187Z,7.88
2022-10-10T16:49:13.395Z,9.05
2022-10-10T16:51:40.836Z,6.50
2022-10-10T16:54:08.795Z,6.68
2022-10-10T16:56:36.295Z,6.45
2022-10-10T16:59:04.342Z,5.70
2022-10-10T17:01:32.656Z,5.25
2022-10-10T17:04:00.610Z,6.47
2022-10-10T17:06:34.116Z,7.95
2022-10-10T17:09:02.907Z,7.50
2022-10-10T17:11:30.472Z,6.22
2022-10-10T17:13:58.550Z,10.02
2022-10-10T17:17:06.975Z,5.38
2022-10-10T17:19:14.657Z,8.68
2022-10-10T17:21:42.193Z,8.38
2022-10-10T17:24:10.239Z,8.20
2022-10-10T17:26:37.971Z,6.63
2022-10-10T17:29:05.497Z,11.20
2022-10-10T17:31:33.666Z,7.53
2022-10-10T17:34:01.147Z,6.10
2022-10-10T17:36:29.418Z,7.13
2022-10-10T17:38:56.965Z,6.88
2022-10-10T17:41:24.403Z,6.82
2022-10-10T17:43:51.847Z,9.60
2022-10-10T17:46:37.077Z,6.22
2022-10-10T17:49:05.761Z,8.85
2022-10-10T17:51:33.548Z,7.80
2022-10-10T17:54:01.101Z,6.65
2022-10-10T17:56:28.607Z,10.15
2022-10-10T17:58:56.064Z,10.55
2022-10-10T18:01:23.647Z,9.07
2022-10-10T18:03:51.392Z,8.05
2022-10-10T18:06:20.768Z,7.05
2022-10-10T18:08:48.959Z,8.63
2022-10-10T18:11:17.314Z,8.18
2022-10-10T18:13:45.215Z,9.68
2022-10-10T18:16:14.150Z,5.93
2022-10-10T18:18:45.660Z,8.85
2022-10-10T18:21:16.308Z,9.23
2022-10-10T18:23:44.037Z,10.50
2022-10-10T18:26:19.254Z,12.80
2022-10-10T18:28:46.778Z,7.18
2022-10-10T18:31:15.864Z,8.15
2022-10-10T18:33:44.912Z,8.73
2022-10-10T18:36:13.060Z,8.35
2022-10-10T18:38:40.552Z,6.82
2022-10-10T18:41:08.993Z,9.77
2022-10-10T18:43:36.669Z,6.93
2022-10-10T18:46:05.824Z,12.48
2022-10-10T18:48:33.620Z,11.63
2022-10-10T18:51:05.712Z,5.45
2022-10-10T18:53:40.533Z,5.60
2022-10-10T18:56:08.792Z,7.13
2022-10-10T18:58:36.934Z,11.23
2022-10-10T19:01:06.669Z,7.70
2022-10-10T19:03:34.412Z,8.02
2022-10-10T19:06:02.878Z,8.93
2022-10-10T19:08:33.531Z,5.38
2022-10-10T19:11:01.281Z,8.55
2022-10-10T19:13:29.282Z,10.63
2022-10-10T19:15:57.153Z,7.60
2022-10-10T19:18:24.582Z,10.80
2022-10-10T19:20:52.024Z,8.80
2022-10-10T19:23:19.779Z,8.15
2022-10-10T19:25:47.338Z,11.07
2022-10-10T19:28:14.801Z,8.43
2022-10-10T19:30:43.620Z,10.73
2022-10-10T19:33:11.632Z,11.52
2022-10-10T19:35:40.050Z,11.27
2022-10-10T19:38:08.209Z,10.30
2022-10-10T19:40:36.142Z,13.13
2022-10-10T19:43:03.671Z,11.13
2022-10-10T19:45:31.056Z,11.45
2022-10-10T19:47:58.601Z,8.40
2022-10-10T19:50:25.964Z,10.55
2022-10-10T19:52:53.422Z,8.57
2022-10-10T19:55:20.859Z,8.27
2022-10-10T19:57:48.363Z,8.73
2022-10-10T20:00:15.933Z,11.32
2022-10-10T20:02:45.019Z,11.00
2022-10-10T20:05:12.709Z,9.93
2022-10-10T20:07:40.136Z,12.25
2022-10-10T20:10:07.791Z,8.63
2022-10-10T20:12:35.209Z,12.43
2022-10-10T20:15:02.685Z,10.88
2022-10-10T20:17:30.192Z,9.18
2022-10-10T20:19:57.619Z,13.15
2022-10-10T20:22:25.079Z,6.93
2022-10-10T20:24:53.231Z,9.45
2022-10-10T20:27:31.517Z,8.30
2022-10-10T20:30:00.084Z,7.95
2022-10-10T20:32:27.531Z,14.95
2022-10-10T20:34:55.008Z,7.97
2022-10-10T20:37:22.446Z,9.82
2022-10-10T20:39:49.937Z,9.35
2022-10-10T20:42:17.487Z,8.88
2022-10-10T20:44:44.977Z,8.13
2022-10-10T20:47:12.393Z,8.35
2022-10-10T20:49:39.858Z,8.30
2022-10-10T20:52:07.340Z,9.40
2022-10-10T20:54:36.267Z,8.57
2022-10-10T20:57:03.786Z,11.40
2022-10-10T20:59:31.236Z,8.40
2022-10-10T21:01:58.742Z,10.00
2022-10-10T21:04:26.276Z,11.23
2022-10-10T21:06:53.773Z,10.80
2022-10-10T21:09:21.313Z,11.23
2022-10-10T21:11:51.008Z,9.65
2022-10-10T21:14:19.226Z,6.85
2022-10-10T21:16:46.708Z,6.20
2022-10-10T21:19:14.968Z,9.73
2022-10-10T21:21:42.388Z,8.07
2022-10-10T21:24:13.898Z,10.23
2022-10-10T21:26:42.212Z,7.80
2022-10-10T21:29:10.134Z,9.82
2022-10-10T21:31:39.076Z,8.00
2022-10-10T21:34:07.924Z,5.72
2022-10-10T21:36:35.501Z,9.43
2022-10-10T21:39:02.955Z,7.55
2022-10-10T21:41:30.460Z,6.35
2022-10-10T21:43:58.853Z,8.07
2022-10-10T21:46:36.594Z,6.20
2022-10-10T21:49:06.201Z,6.32
2022-10-10T21:51:35.767Z,6.72
2022-10-10T21:54:03.292Z,7.95
2022-10-10T21:56:30.732Z,4.80
2022-10-10T21:59:01.193Z,7.57
2022-10-10T22:01:32.869Z,8.55
2022-10-10T22:04:01.052Z,9.48
2022-10-10T22:06:28.572Z,7.18
2022-10-10T22:08:57.362Z,6.00
2022-10-10T22:11:25.778Z,6.35
2022-10-10T22:13:53.686Z,9.52
2022-10-10T22:16:21.473Z,6.70
2022-10-10T22:18:49.083Z,7.43
2022-10-10T22:21:17.552Z,7.88
2022-10-10T22:23:45.570Z,8.65
2022-10-10T22:26:14.320Z,6.18
2022-10-10T22:28:41.812Z,8.77
2022-10-10T22:31:10.696Z,6.53
2022-10-10T22:33:38.119Z,8.77
2022-10-10T22:36:06.778Z,8.35
2022-10-10T22:38:37.920Z,10.48
2022-10-10T22:41:05.467Z,8.68
2022-10-10T22:43:33.219Z,8.10
2022-10-10T22:46:00.886Z,7.43
2022-10-10T22:48:28.605Z,8.82
2022-10-10T22:51:00.436Z,6.90
2022-10-10T22:53:27.963Z,8.73
2022-10-10T22:55:55.420Z,6.50
2022-10-10T22:58:22.944Z,10.10
2022-10-10T23:00:51.385Z,5.68
2022-10-10T23:03:19.027Z,5.75
2022-10-10T23:05:46.544Z,10.02
2022-10-10T23:08:14.421Z,7.25
2022-10-10T23:10:41.979Z,10.70
2022-10-10T23:13:09.470Z,5.25
2022-10-10T23:15:36.871Z,7.53
2022-10-10T23:18:04.416Z,7.60
2022-10-10T23:20:31.917Z,8.15
2022-10-10T23:22:59.407Z,7.90
2022-10-10T23:25:26.805Z,7.85
2022-10-10T23:27:54.275Z,8.98
2022-10-10T23:30:21.687Z,6.85
2022-10-10T23:32:49.178Z,6.65
2022-10-10T23:35:16.640Z,7.07
2022-10-10T23:37:44.092Z,7.90
2022-10-10T23:40:11.784Z,6.25
2022-10-10T23:42:39.259Z,8.43
2022-10-10T23:45:06.953Z,7.05
2022-10-10T23:47:34.317Z,13.27
2022-10-10T23:50:01.740Z,7.93
2022-10-10T23:52:29.180Z,5.93
2022-10-10T23:54:56.659Z,4.85
2022-10-10T23:57:24.041Z,5.82
2022-10-10T23:59:51.516Z,7.07
